ROMMA est une association bénévole à but non lucratif. Votre soutien est indispensable : ADHERER à ROMMA ou FAIRE un DON

Le Versoud - (38, Isère)

Vallée du Grésivaudan (220 m)   Longitude: 05° 51' 44" E   Latitude: 45° 13' 06" N Station partenaire n°6
 

Détail journalier du     <<     >>

Température Humidité Pression Vent Dir Rafale Dir. rafale Ensol.
Heure (°C) (%) (hPa) (km/h) (km/h) (min)
01:00 12.992101900---0
02:00 12.693101900---0
03:00 11.994101900---0
04:00 12.295101800---0
05:00 12.295101800---0
06:00 12.195101800---0
07:00 11.995101700---0
08:00 12.195101700---0
09:00 12.394101700---0
10:00 13.492101800---0
11:00 16.282101800---20
12:00 18.075101800---60
13:00 21.067101700---55
14:00 23.760101600---60
15:00 26.150101500---60
16:00 27.0451014015S60
17:00 26.84310141S16S60
18:00 25.6451014019S60
19:00 22.2561014011SSE30
20:00 19.268101503SSE0
21:00 16.777101500---0
22:00 15.381101600---0
23:00 13.986101700---0
minuit 13.089101700---0

Graphique du 13-10-2019

 

Serveur OMMA